METAR Formatted Surface Weather Observation
Issued by NWS Huntsville, AL

Home | Current Version | Previous Version | Text Only | Print | Product List | Glossary On
Versions: 1 2 3
000
SAUS44 KHUN 011554
MTRHSV
METAR KHSV 011553Z 05013KT 10SM CLR 32/17 A3003 RMK AO2 SLP161
T03170172



USA.gov is the U.S. government's official web portal to all federal, state and local government web resources and services.